sensor_id;sensor_type;location;lat;lon;timestamp;P1;durP1;ratioP1;P2;durP2;ratioP2
65202;SDS011;51788;45.124;38.966;2023-04-08T00:01:19;17.33;;;11.95;;
65202;SDS011;51788;45.124;38.966;2023-04-08T00:03:45;20.55;;;11.68;;
65202;SDS011;51788;45.124;38.966;2023-04-08T00:06:11;14.07;;;11.73;;
65202;SDS011;51788;45.124;38.966;2023-04-08T00:08:37;22.90;;;13.40;;
65202;SDS011;51788;45.124;38.966;2023-04-08T00:11:03;23.92;;;14.70;;
65202;SDS011;51788;45.124;38.966;2023-04-08T00:13:29;16.92;;;12.18;;
65202;SDS011;51788;45.124;38.966;2023-04-08T00:15:55;18.00;;;11.23;;
65202;SDS011;51788;45.124;38.966;2023-04-08T00:18:21;17.08;;;10.50;;
65202;SDS011;51788;45.124;38.966;2023-04-08T00:20:47;15.90;;;9.98;;
65202;SDS011;51788;45.124;38.966;2023-04-08T00:23:13;17.83;;;12.07;;
65202;SDS011;51788;45.124;38.966;2023-04-08T00:25:39;16.30;;;11.68;;
65202;SDS011;51788;45.124;38.966;2023-04-08T00:28:05;16.20;;;10.27;;
65202;SDS011;51788;45.124;38.966;2023-04-08T00:30:31;17.38;;;10.57;;
65202;SDS011;51788;45.124;38.966;2023-04-08T00:32:57;19.05;;;11.18;;
65202;SDS011;51788;45.124;38.966;2023-04-08T00:35:23;18.08;;;10.55;;
65202;SDS011;51788;45.124;38.966;2023-04-08T00:37:49;17.25;;;9.38;;
65202;SDS011;51788;45.124;38.966;2023-04-08T00:40:15;13.52;;;10.10;;
65202;SDS011;51788;45.124;38.966;2023-04-08T00:42:41;15.85;;;9.45;;
65202;SDS011;51788;45.124;38.966;2023-04-08T00:45:07;11.85;;;8.07;;
65202;SDS011;51788;45.124;38.966;2023-04-08T00:47:34;15.07;;;9.13;;
65202;SDS011;51788;45.124;38.966;2023-04-08T00:50:01;12.98;;;8.20;;
65202;SDS011;51788;45.124;38.966;2023-04-08T00:52:28;11.98;;;8.80;;
65202;SDS011;51788;45.124;38.966;2023-04-08T00:54:54;15.43;;;8.70;;
65202;SDS011;51788;45.124;38.966;2023-04-08T00:57:20;16.52;;;7.45;;
65202;SDS011;51788;45.124;38.966;2023-04-08T00:59:46;14.50;;;9.68;;
65202;SDS011;51788;45.124;38.966;2023-04-08T01:05:04;14.85;;;9.02;;
65202;SDS011;51788;45.124;38.966;2023-04-08T01:07:36;14.32;;;8.93;;
65202;SDS011;51788;45.124;38.966;2023-04-08T01:12:39;15.27;;;9.65;;
65202;SDS011;51788;45.124;38.966;2023-04-08T01:15:09;16.63;;;11.02;;
65202;SDS011;51788;45.124;38.966;2023-04-08T01:17:36;19.35;;;11.88;;
65202;SDS011;51788;45.124;38.966;2023-04-08T01:20:03;21.42;;;10.27;;
65202;SDS011;51788;45.124;38.966;2023-04-08T01:25:15;20.90;;;10.70;;
65202;SDS011;51788;45.124;38.966;2023-04-08T01:27:44;21.25;;;11.02;;
65202;SDS011;51788;45.124;38.966;2023-04-08T01:30:13;17.58;;;11.43;;
65202;SDS011;51788;45.124;38.966;2023-04-08T01:32:41;13.35;;;9.65;;
65202;SDS011;51788;45.124;38.966;2023-04-08T01:35:09;15.05;;;10.25;;
65202;SDS011;51788;45.124;38.966;2023-04-08T01:37:36;20.05;;;10.57;;
65202;SDS011;51788;45.124;38.966;2023-04-08T01:40:03;19.08;;;11.75;;
65202;SDS011;51788;45.124;38.966;2023-04-08T01:42:32;16.38;;;9.98;;
65202;SDS011;51788;45.124;38.966;2023-04-08T01:44:59;15.35;;;8.60;;
65202;SDS011;51788;45.124;38.966;2023-04-08T01:47:26;15.75;;;10.75;;
65202;SDS011;51788;45.124;38.966;2023-04-08T01:49:53;24.33;;;14.32;;
65202;SDS011;51788;45.124;38.966;2023-04-08T01:52:20;19.02;;;11.10;;
65202;SDS011;51788;45.124;38.966;2023-04-08T01:54:48;22.33;;;12.65;;
65202;SDS011;51788;45.124;38.966;2023-04-08T01:57:16;16.50;;;11.00;;
65202;SDS011;51788;45.124;38.966;2023-04-08T01:59:51;17.60;;;11.05;;
65202;SDS011;51788;45.124;38.966;2023-04-08T02:02:23;21.85;;;11.70;;
65202;SDS011;51788;45.124;38.966;2023-04-08T02:04:52;19.73;;;8.85;;
65202;SDS011;51788;45.124;38.966;2023-04-08T02:07:18;10.65;;;8.90;;
65202;SDS011;51788;45.124;38.966;2023-04-08T02:09:45;15.30;;;10.23;;
65202;SDS011;51788;45.124;38.966;2023-04-08T02:12:11;8.32;;;6.95;;
65202;SDS011;51788;45.124;38.966;2023-04-08T02:14:37;15.52;;;10.95;;
65202;SDS011;51788;45.124;38.966;2023-04-08T02:17:13;20.73;;;13.43;;
65202;SDS011;51788;45.124;38.966;2023-04-08T02:25:23;20.50;;;13.23;;
65202;SDS011;51788;45.124;38.966;2023-04-08T02:27:50;18.40;;;12.60;;
65202;SDS011;51788;45.124;38.966;2023-04-08T02:30:17;12.38;;;7.10;;
65202;SDS011;51788;45.124;38.966;2023-04-08T02:32:46;18.17;;;10.80;;
65202;SDS011;51788;45.124;38.966;2023-04-08T02:35:13;16.80;;;11.57;;
65202;SDS011;51788;45.124;38.966;2023-04-08T02:37:40;27.45;;;13.43;;
65202;SDS011;51788;45.124;38.966;2023-04-08T02:40:23;30.40;;;14.00;;
65202;SDS011;51788;45.124;38.966;2023-04-08T02:42:51;19.98;;;12.15;;
65202;SDS011;51788;45.124;38.966;2023-04-08T02:45:18;22.80;;;12.35;;
65202;SDS011;51788;45.124;38.966;2023-04-08T02:47:44;22.00;;;12.70;;
65202;SDS011;51788;45.124;38.966;2023-04-08T02:50:10;26.40;;;14.02;;
65202;SDS011;51788;45.124;38.966;2023-04-08T02:52:36;28.63;;;15.60;;
65202;SDS011;51788;45.124;38.966;2023-04-08T02:55:02;25.73;;;14.13;;
65202;SDS011;51788;45.124;38.966;2023-04-08T02:57:31;23.88;;;13.65;;
65202;SDS011;51788;45.124;38.966;2023-04-08T02:59:57;18.30;;;11.98;;
65202;SDS011;51788;45.124;38.966;2023-04-08T03:02:22;22.45;;;12.48;;
65202;SDS011;51788;45.124;38.966;2023-04-08T03:04:48;27.75;;;16.05;;
65202;SDS011;51788;45.124;38.966;2023-04-08T03:07:14;26.25;;;14.45;;
65202;SDS011;51788;45.124;38.966;2023-04-08T03:09:40;21.38;;;12.95;;
65202;SDS011;51788;45.124;38.966;2023-04-08T03:12:06;22.80;;;13.25;;
65202;SDS011;51788;45.124;38.966;2023-04-08T03:14:32;21.92;;;13.10;;
65202;SDS011;51788;45.124;38.966;2023-04-08T03:16:58;20.27;;;12.55;;
65202;SDS011;51788;45.124;38.966;2023-04-08T03:19:24;23.70;;;14.25;;
65202;SDS011;51788;45.124;38.966;2023-04-08T03:21:50;27.15;;;14.65;;
65202;SDS011;51788;45.124;38.966;2023-04-08T03:24:16;21.25;;;12.73;;
65202;SDS011;51788;45.124;38.966;2023-04-08T03:26:42;18.73;;;11.55;;
65202;SDS011;51788;45.124;38.966;2023-04-08T03:29:07;18.23;;;11.30;;
65202;SDS011;51788;45.124;38.966;2023-04-08T03:31:34;21.50;;;12.88;;
65202;SDS011;51788;45.124;38.966;2023-04-08T03:34:00;21.67;;;13.48;;
65202;SDS011;51788;45.124;38.966;2023-04-08T03:36:26;14.20;;;10.70;;
65202;SDS011;51788;45.124;38.966;2023-04-08T03:38:52;18.88;;;10.13;;
65202;SDS011;51788;45.124;38.966;2023-04-08T03:41:18;16.48;;;11.25;;
65202;SDS011;51788;45.124;38.966;2023-04-08T03:43:44;18.17;;;11.10;;
65202;SDS011;51788;45.124;38.966;2023-04-08T03:46:10;16.50;;;10.85;;
65202;SDS011;51788;45.124;38.966;2023-04-08T03:48:36;26.25;;;13.65;;
65202;SDS011;51788;45.124;38.966;2023-04-08T03:51:02;21.42;;;12.95;;
65202;SDS011;51788;45.124;38.966;2023-04-08T03:53:27;23.70;;;13.95;;
65202;SDS011;51788;45.124;38.966;2023-04-08T03:55:55;25.88;;;14.00;;
65202;SDS011;51788;45.124;38.966;2023-04-08T03:58:21;23.27;;;13.77;;
65202;SDS011;51788;45.124;38.966;2023-04-08T04:00:47;29.95;;;16.98;;
65202;SDS011;51788;45.124;38.966;2023-04-08T04:03:13;31.67;;;16.52;;
65202;SDS011;51788;45.124;38.966;2023-04-08T04:05:39;33.08;;;16.40;;
65202;SDS011;51788;45.124;38.966;2023-04-08T04:08:05;25.50;;;13.38;;
65202;SDS011;51788;45.124;38.966;2023-04-08T04:10:31;24.75;;;13.77;;
65202;SDS011;51788;45.124;38.966;2023-04-08T04:12:57;26.40;;;12.95;;
65202;SDS011;51788;45.124;38.966;2023-04-08T04:15:23;25.60;;;13.60;;
65202;SDS011;51788;45.124;38.966;2023-04-08T04:17:49;28.73;;;14.77;;
65202;SDS011;51788;45.124;38.966;2023-04-08T04:20:15;21.30;;;12.63;;
65202;SDS011;51788;45.124;38.966;2023-04-08T04:22:42;25.05;;;13.30;;
65202;SDS011;51788;45.124;38.966;2023-04-08T04:25:08;24.48;;;13.10;;
65202;SDS011;51788;45.124;38.966;2023-04-08T04:27:35;25.40;;;13.38;;
65202;SDS011;51788;45.124;38.966;2023-04-08T04:30:01;27.67;;;15.13;;
65202;SDS011;51788;45.124;38.966;2023-04-08T04:32:28;27.98;;;14.27;;
65202;SDS011;51788;45.124;38.966;2023-04-08T04:34:54;28.85;;;14.50;;
65202;SDS011;51788;45.124;38.966;2023-04-08T04:37:20;24.23;;;13.68;;
65202;SDS011;51788;45.124;38.966;2023-04-08T04:39:46;27.17;;;15.02;;
65202;SDS011;51788;45.124;38.966;2023-04-08T04:42:12;25.08;;;14.90;;
65202;SDS011;51788;45.124;38.966;2023-04-08T04:44:38;21.48;;;13.75;;
65202;SDS011;51788;45.124;38.966;2023-04-08T04:47:04;25.33;;;14.82;;
65202;SDS011;51788;45.124;38.966;2023-04-08T04:49:30;31.67;;;15.57;;
65202;SDS011;51788;45.124;38.966;2023-04-08T04:51:56;20.38;;;13.18;;
65202;SDS011;51788;45.124;38.966;2023-04-08T04:54:22;21.63;;;13.52;;
65202;SDS011;51788;45.124;38.966;2023-04-08T04:56:48;27.25;;;15.02;;
65202;SDS011;51788;45.124;38.966;2023-04-08T04:59:14;23.83;;;14.65;;
65202;SDS011;51788;45.124;38.966;2023-04-08T05:01:40;22.75;;;12.65;;
65202;SDS011;51788;45.124;38.966;2023-04-08T05:04:06;24.52;;;12.48;;
65202;SDS011;51788;45.124;38.966;2023-04-08T05:06:32;18.23;;;11.98;;
65202;SDS011;51788;45.124;38.966;2023-04-08T05:08:58;19.73;;;12.40;;
65202;SDS011;51788;45.124;38.966;2023-04-08T05:11:24;25.95;;;12.68;;
65202;SDS011;51788;45.124;38.966;2023-04-08T05:13:50;22.67;;;12.75;;
65202;SDS011;51788;45.124;38.966;2023-04-08T05:16:16;24.10;;;14.13;;
65202;SDS011;51788;45.124;38.966;2023-04-08T05:18:42;20.42;;;12.50;;
65202;SDS011;51788;45.124;38.966;2023-04-08T05:21:08;17.55;;;11.68;;
65202;SDS011;51788;45.124;38.966;2023-04-08T05:23:34;20.92;;;10.25;;
65202;SDS011;51788;45.124;38.966;2023-04-08T05:26:00;17.98;;;11.88;;
65202;SDS011;51788;45.124;38.966;2023-04-08T05:28:26;20.52;;;12.27;;
65202;SDS011;51788;45.124;38.966;2023-04-08T05:30:52;19.33;;;12.27;;
65202;SDS011;51788;45.124;38.966;2023-04-08T05:33:18;18.05;;;12.32;;
65202;SDS011;51788;45.124;38.966;2023-04-08T05:35:45;24.45;;;13.65;;
65202;SDS011;51788;45.124;38.966;2023-04-08T05:38:11;16.40;;;10.57;;
65202;SDS011;51788;45.124;38.966;2023-04-08T05:40:37;17.52;;;11.73;;
65202;SDS011;51788;45.124;38.966;2023-04-08T05:43:03;23.10;;;11.80;;
65202;SDS011;51788;45.124;38.966;2023-04-08T05:45:29;21.25;;;12.75;;
65202;SDS011;51788;45.124;38.966;2023-04-08T05:47:55;19.90;;;12.00;;
65202;SDS011;51788;45.124;38.966;2023-04-08T05:50:21;22.30;;;12.65;;
65202;SDS011;51788;45.124;38.966;2023-04-08T05:52:47;21.77;;;12.30;;
65202;SDS011;51788;45.124;38.966;2023-04-08T05:55:13;18.15;;;11.50;;
65202;SDS011;51788;45.124;38.966;2023-04-08T05:57:39;21.13;;;11.27;;
65202;SDS011;51788;45.124;38.966;2023-04-08T06:00:06;18.20;;;11.07;;
65202;SDS011;51788;45.124;38.966;2023-04-08T06:02:35;16.95;;;11.18;;
65202;SDS011;51788;45.124;38.966;2023-04-08T06:05:02;15.50;;;11.80;;
65202;SDS011;51788;45.124;38.966;2023-04-08T06:07:28;17.27;;;11.93;;
65202;SDS011;51788;45.124;38.966;2023-04-08T06:09:55;24.52;;;14.02;;
65202;SDS011;51788;45.124;38.966;2023-04-08T06:12:21;17.25;;;12.02;;
65202;SDS011;51788;45.124;38.966;2023-04-08T06:14:47;20.90;;;12.45;;
65202;SDS011;51788;45.124;38.966;2023-04-08T06:17:17;19.13;;;11.60;;
65202;SDS011;51788;45.124;38.966;2023-04-08T06:19:43;15.55;;;9.80;;
65202;SDS011;51788;45.124;38.966;2023-04-08T06:22:09;18.50;;;10.50;;
65202;SDS011;51788;45.124;38.966;2023-04-08T06:24:35;12.50;;;8.38;;
65202;SDS011;51788;45.124;38.966;2023-04-08T06:27:01;13.20;;;9.93;;
65202;SDS011;51788;45.124;38.966;2023-04-08T06:29:27;18.65;;;10.25;;
65202;SDS011;51788;45.124;38.966;2023-04-08T06:31:54;13.60;;;9.43;;
65202;SDS011;51788;45.124;38.966;2023-04-08T06:34:20;16.15;;;10.27;;
65202;SDS011;51788;45.124;38.966;2023-04-08T06:36:47;12.50;;;7.13;;
65202;SDS011;51788;45.124;38.966;2023-04-08T06:39:14;21.00;;;11.85;;
65202;SDS011;51788;45.124;38.966;2023-04-08T06:41:41;14.95;;;9.45;;
65202;SDS011;51788;45.124;38.966;2023-04-08T06:44:24;11.27;;;9.75;;
65202;SDS011;51788;45.124;38.966;2023-04-08T06:46:50;12.23;;;10.00;;
65202;SDS011;51788;45.124;38.966;2023-04-08T06:49:16;15.93;;;10.68;;
65202;SDS011;51788;45.124;38.966;2023-04-08T06:51:42;17.25;;;11.35;;
65202;SDS011;51788;45.124;38.966;2023-04-08T06:54:09;11.13;;;9.32;;
65202;SDS011;51788;45.124;38.966;2023-04-08T06:56:35;17.10;;;10.38;;
65202;SDS011;51788;45.124;38.966;2023-04-08T06:59:01;18.90;;;10.18;;
65202;SDS011;51788;45.124;38.966;2023-04-08T07:01:29;11.60;;;9.40;;
65202;SDS011;51788;45.124;38.966;2023-04-08T07:03:56;12.82;;;10.05;;
65202;SDS011;51788;45.124;38.966;2023-04-08T07:06:22;10.30;;;8.60;;
65202;SDS011;51788;45.124;38.966;2023-04-08T07:08:48;15.57;;;10.73;;
65202;SDS011;51788;45.124;38.966;2023-04-08T07:11:15;13.48;;;9.07;;
65202;SDS011;51788;45.124;38.966;2023-04-08T07:13:41;14.98;;;10.27;;
65202;SDS011;51788;45.124;38.966;2023-04-08T07:16:08;13.10;;;9.02;;
65202;SDS011;51788;45.124;38.966;2023-04-08T07:18:34;15.93;;;10.32;;
65202;SDS011;51788;45.124;38.966;2023-04-08T07:21:00;17.08;;;9.95;;
65202;SDS011;51788;45.124;38.966;2023-04-08T07:23:26;10.07;;;8.77;;
65202;SDS011;51788;45.124;38.966;2023-04-08T07:25:52;11.57;;;8.57;;
65202;SDS011;51788;45.124;38.966;2023-04-08T07:28:18;11.75;;;9.10;;
65202;SDS011;51788;45.124;38.966;2023-04-08T07:30:45;13.48;;;9.05;;
65202;SDS011;51788;45.124;38.966;2023-04-08T07:33:11;12.15;;;10.18;;
65202;SDS011;51788;45.124;38.966;2023-04-08T07:35:37;10.60;;;7.90;;
65202;SDS011;51788;45.124;38.966;2023-04-08T07:38:03;10.07;;;7.90;;
65202;SDS011;51788;45.124;38.966;2023-04-08T07:40:29;9.63;;;8.65;;
65202;SDS011;51788;45.124;38.966;2023-04-08T07:42:55;9.82;;;7.28;;
65202;SDS011;51788;45.124;38.966;2023-04-08T07:45:21;11.15;;;8.65;;
65202;SDS011;51788;45.124;38.966;2023-04-08T07:47:47;11.63;;;7.93;;
65202;SDS011;51788;45.124;38.966;2023-04-08T07:50:13;9.68;;;8.38;;
65202;SDS011;51788;45.124;38.966;2023-04-08T07:52:39;14.27;;;7.80;;
65202;SDS011;51788;45.124;38.966;2023-04-08T07:55:05;8.77;;;7.75;;
65202;SDS011;51788;45.124;38.966;2023-04-08T07:57:31;9.95;;;8.63;;
65202;SDS011;51788;45.124;38.966;2023-04-08T07:59:57;11.98;;;8.82;;
65202;SDS011;51788;45.124;38.966;2023-04-08T08:02:23;12.52;;;8.05;;
65202;SDS011;51788;45.124;38.966;2023-04-08T08:04:49;11.38;;;7.45;;
65202;SDS011;51788;45.124;38.966;2023-04-08T08:07:15;7.32;;;6.72;;
65202;SDS011;51788;45.124;38.966;2023-04-08T08:09:41;7.70;;;6.82;;
65202;SDS011;51788;45.124;38.966;2023-04-08T08:12:07;11.57;;;8.38;;
65202;SDS011;51788;45.124;38.966;2023-04-08T08:14:33;13.25;;;7.32;;
65202;SDS011;51788;45.124;38.966;2023-04-08T08:16:59;8.00;;;7.20;;
65202;SDS011;51788;45.124;38.966;2023-04-08T08:19:25;10.15;;;7.60;;
65202;SDS011;51788;45.124;38.966;2023-04-08T08:21:51;9.43;;;7.50;;
65202;SDS011;51788;45.124;38.966;2023-04-08T08:24:17;11.48;;;7.80;;
65202;SDS011;51788;45.124;38.966;2023-04-08T08:26:43;12.13;;;8.48;;
65202;SDS011;51788;45.124;38.966;2023-04-08T08:29:11;8.13;;;7.38;;
65202;SDS011;51788;45.124;38.966;2023-04-08T08:31:37;15.68;;;7.32;;
65202;SDS011;51788;45.124;38.966;2023-04-08T08:34:03;19.63;;;7.47;;
65202;SDS011;51788;45.124;38.966;2023-04-08T08:36:29;9.60;;;6.93;;
65202;SDS011;51788;45.124;38.966;2023-04-08T08:38:55;12.88;;;6.72;;
65202;SDS011;51788;45.124;38.966;2023-04-08T08:41:21;7.65;;;6.45;;
65202;SDS011;51788;45.124;38.966;2023-04-08T08:43:47;8.57;;;7.68;;
65202;SDS011;51788;45.124;38.966;2023-04-08T08:46:14;9.38;;;6.53;;
65202;SDS011;51788;45.124;38.966;2023-04-08T08:48:45;6.97;;;6.32;;
65202;SDS011;51788;45.124;38.966;2023-04-08T08:51:11;17.58;;;8.27;;
65202;SDS011;51788;45.124;38.966;2023-04-08T08:53:38;14.60;;;10.30;;
65202;SDS011;51788;45.124;38.966;2023-04-08T08:56:05;14.20;;;11.88;;
65202;SDS011;51788;45.124;38.966;2023-04-08T08:58:33;19.92;;;8.15;;
65202;SDS011;51788;45.124;38.966;2023-04-08T09:00:59;8.07;;;7.15;;
65202;SDS011;51788;45.124;38.966;2023-04-08T09:03:26;9.82;;;7.97;;
65202;SDS011;51788;45.124;38.966;2023-04-08T09:05:59;11.20;;;8.63;;
65202;SDS011;51788;45.124;38.966;2023-04-08T09:08:30;8.77;;;7.90;;
65202;SDS011;51788;45.124;38.966;2023-04-08T09:11:18;11.73;;;8.00;;
65202;SDS011;51788;45.124;38.966;2023-04-08T09:13:44;15.30;;;9.10;;
65202;SDS011;51788;45.124;38.966;2023-04-08T09:16:19;9.13;;;8.23;;
65202;SDS011;51788;45.124;38.966;2023-04-08T09:18:47;13.07;;;10.15;;
65202;SDS011;51788;45.124;38.966;2023-04-08T09:21:14;10.88;;;8.20;;
65202;SDS011;51788;45.124;38.966;2023-04-08T09:23:44;22.80;;;9.60;;
65202;SDS011;51788;45.124;38.966;2023-04-08T09:26:15;11.73;;;9.38;;
65202;SDS011;51788;45.124;38.966;2023-04-08T09:28:42;15.52;;;10.77;;
65202;SDS011;51788;45.124;38.966;2023-04-08T09:31:22;15.40;;;10.40;;
65202;SDS011;51788;45.124;38.966;2023-04-08T09:33:51;12.13;;;9.95;;
65202;SDS011;51788;45.124;38.966;2023-04-08T09:36:18;10.70;;;9.60;;
65202;SDS011;51788;45.124;38.966;2023-04-08T09:38:44;17.55;;;9.63;;
65202;SDS011;51788;45.124;38.966;2023-04-08T09:41:14;14.98;;;9.07;;
65202;SDS011;51788;45.124;38.966;2023-04-08T09:43:43;10.68;;;8.65;;
65202;SDS011;51788;45.124;38.966;2023-04-08T09:46:16;11.23;;;9.23;;
65202;SDS011;51788;45.124;38.966;2023-04-08T09:48:53;9.88;;;8.75;;
65202;SDS011;51788;45.124;38.966;2023-04-08T09:51:25;11.52;;;9.32;;
65202;SDS011;51788;45.124;38.966;2023-04-08T09:54:01;17.80;;;9.30;;
65202;SDS011;51788;45.124;38.966;2023-04-08T09:56:41;14.70;;;9.57;;
65202;SDS011;51788;45.124;38.966;2023-04-08T09:59:13;12.87;;;9.83;;
65202;SDS011;51788;45.124;38.966;2023-04-08T10:01:49;13.07;;;9.30;;
65202;SDS011;51788;45.124;38.966;2023-04-08T10:04:19;13.15;;;9.73;;
65202;SDS011;51788;45.124;38.966;2023-04-08T10:06:56;10.80;;;8.75;;
65202;SDS011;51788;45.124;38.966;2023-04-08T10:09:25;9.35;;;8.50;;
65202;SDS011;51788;45.124;38.966;2023-04-08T10:11:52;10.60;;;7.30;;
65202;SDS011;51788;45.124;38.966;2023-04-08T10:14:18;8.80;;;8.00;;
65202;SDS011;51788;45.124;38.966;2023-04-08T10:16:46;9.00;;;7.45;;
65202;SDS011;51788;45.124;38.966;2023-04-08T10:27:40;8.80;;;6.32;;
65202;SDS011;51788;45.124;38.966;2023-04-08T10:32:52;6.40;;;5.70;;
65202;SDS011;51788;45.124;38.966;2023-04-08T10:35:30;9.02;;;5.57;;
65202;SDS011;51788;45.124;38.966;2023-04-08T10:37:59;11.43;;;5.95;;
65202;SDS011;51788;45.124;38.966;2023-04-08T10:40:26;7.45;;;5.75;;
65202;SDS011;51788;45.124;38.966;2023-04-08T10:42:55;7.45;;;6.72;;
65202;SDS011;51788;45.124;38.966;2023-04-08T10:45:24;11.57;;;6.85;;
65202;SDS011;51788;45.124;38.966;2023-04-08T10:47:50;7.15;;;6.20;;
65202;SDS011;51788;45.124;38.966;2023-04-08T10:50:19;12.75;;;8.85;;
65202;SDS011;51788;45.124;38.966;2023-04-08T10:52:49;8.27;;;6.72;;
65202;SDS011;51788;45.124;38.966;2023-04-08T10:55:22;9.68;;;6.78;;
65202;SDS011;51788;45.124;38.966;2023-04-08T10:57:50;11.73;;;7.07;;
65202;SDS011;51788;45.124;38.966;2023-04-08T11:00:26;15.32;;;8.20;;
65202;SDS011;51788;45.124;38.966;2023-04-08T11:03:04;12.45;;;7.97;;
65202;SDS011;51788;45.124;38.966;2023-04-08T11:05:32;7.15;;;6.45;;
65202;SDS011;51788;45.124;38.966;2023-04-08T11:07:59;8.63;;;7.30;;
65202;SDS011;51788;45.124;38.966;2023-04-08T11:10:25;11.32;;;7.35;;
65202;SDS011;51788;45.124;38.966;2023-04-08T11:12:56;14.52;;;7.65;;
65202;SDS011;51788;45.124;38.966;2023-04-08T11:15:25;8.57;;;7.68;;
65202;SDS011;51788;45.124;38.966;2023-04-08T11:17:54;7.90;;;7.22;;
65202;SDS011;51788;45.124;38.966;2023-04-08T11:20:21;8.73;;;7.80;;
65202;SDS011;51788;45.124;38.966;2023-04-08T11:22:48;12.07;;;7.50;;
65202;SDS011;51788;45.124;38.966;2023-04-08T11:25:15;10.48;;;6.53;;
65202;SDS011;51788;45.124;38.966;2023-04-08T11:27:41;7.18;;;6.57;;
65202;SDS011;51788;45.124;38.966;2023-04-08T11:30:08;11.45;;;7.18;;
65202;SDS011;51788;45.124;38.966;2023-04-08T11:32:36;8.98;;;8.18;;
65202;SDS011;51788;45.124;38.966;2023-04-08T11:35:03;8.27;;;7.43;;
65202;SDS011;51788;45.124;38.966;2023-04-08T11:37:39;10.63;;;7.95;;
65202;SDS011;51788;45.124;38.966;2023-04-08T11:40:09;7.68;;;6.75;;
65202;SDS011;51788;45.124;38.966;2023-04-08T11:42:36;14.65;;;9.43;;
65202;SDS011;51788;45.124;38.966;2023-04-08T11:45:13;9.88;;;8.43;;
65202;SDS011;51788;45.124;38.966;2023-04-08T11:47:40;8.32;;;6.45;;
65202;SDS011;51788;45.124;38.966;2023-04-08T11:50:07;8.80;;;7.38;;
65202;SDS011;51788;45.124;38.966;2023-04-08T11:52:44;16.05;;;7.82;;
65202;SDS011;51788;45.124;38.966;2023-04-08T11:55:10;13.35;;;8.40;;
65202;SDS011;51788;45.124;38.966;2023-04-08T11:57:45;9.30;;;8.27;;
65202;SDS011;51788;45.124;38.966;2023-04-08T12:00:12;12.68;;;8.85;;
65202;SDS011;51788;45.124;38.966;2023-04-08T12:02:38;9.50;;;8.40;;
65202;SDS011;51788;45.124;38.966;2023-04-08T12:05:07;9.93;;;7.45;;
65202;SDS011;51788;45.124;38.966;2023-04-08T12:07:33;12.95;;;8.20;;
65202;SDS011;51788;45.124;38.966;2023-04-08T12:09:59;11.95;;;8.88;;
65202;SDS011;51788;45.124;38.966;2023-04-08T12:12:25;11.77;;;9.13;;
65202;SDS011;51788;45.124;38.966;2023-04-08T12:14:51;11.02;;;8.25;;
65202;SDS011;51788;45.124;38.966;2023-04-08T12:17:18;9.90;;;8.07;;
65202;SDS011;51788;45.124;38.966;2023-04-08T12:19:43;8.70;;;7.90;;
65202;SDS011;51788;45.124;38.966;2023-04-08T12:22:10;15.23;;;9.32;;
65202;SDS011;51788;45.124;38.966;2023-04-08T12:24:36;9.52;;;7.88;;
65202;SDS011;51788;45.124;38.966;2023-04-08T12:27:02;11.18;;;8.65;;
65202;SDS011;51788;45.124;38.966;2023-04-08T12:29:29;14.60;;;9.02;;
65202;SDS011;51788;45.124;38.966;2023-04-08T12:31:55;15.75;;;8.73;;
65202;SDS011;51788;45.124;38.966;2023-04-08T12:34:22;16.00;;;9.93;;
65202;SDS011;51788;45.124;38.966;2023-04-08T12:36:49;13.00;;;8.77;;
65202;SDS011;51788;45.124;38.966;2023-04-08T12:39:15;10.25;;;9.18;;
65202;SDS011;51788;45.124;38.966;2023-04-08T12:41:41;13.73;;;9.90;;
65202;SDS011;51788;45.124;38.966;2023-04-08T12:44:07;18.40;;;9.02;;
65202;SDS011;51788;45.124;38.966;2023-04-08T12:46:32;12.85;;;8.70;;
65202;SDS011;51788;45.124;38.966;2023-04-08T12:48:58;13.48;;;8.68;;
65202;SDS011;51788;45.124;38.966;2023-04-08T12:51:24;12.43;;;8.65;;
65202;SDS011;51788;45.124;38.966;2023-04-08T12:53:50;14.88;;;8.93;;
65202;SDS011;51788;45.124;38.966;2023-04-08T12:56:16;10.57;;;9.48;;
65202;SDS011;51788;45.124;38.966;2023-04-08T12:58:42;9.10;;;8.20;;
65202;SDS011;51788;45.124;38.966;2023-04-08T13:01:08;12.85;;;8.35;;
65202;SDS011;51788;45.124;38.966;2023-04-08T13:03:34;14.00;;;8.75;;
65202;SDS011;51788;45.124;38.966;2023-04-08T13:06:00;14.43;;;9.05;;
65202;SDS011;51788;45.124;38.966;2023-04-08T13:08:27;11.48;;;8.65;;
65202;SDS011;51788;45.124;38.966;2023-04-08T13:10:53;13.05;;;8.73;;
65202;SDS011;51788;45.124;38.966;2023-04-08T13:13:19;14.38;;;9.75;;
65202;SDS011;51788;45.124;38.966;2023-04-08T13:15:45;11.60;;;8.60;;
65202;SDS011;51788;45.124;38.966;2023-04-08T13:18:12;11.07;;;8.52;;
65202;SDS011;51788;45.124;38.966;2023-04-08T13:20:38;16.10;;;8.95;;
65202;SDS011;51788;45.124;38.966;2023-04-08T13:23:04;18.60;;;8.90;;
65202;SDS011;51788;45.124;38.966;2023-04-08T13:25:30;9.60;;;8.30;;
65202;SDS011;51788;45.124;38.966;2023-04-08T13:27:56;17.63;;;11.15;;
65202;SDS011;51788;45.124;38.966;2023-04-08T13:30:22;12.60;;;11.32;;
65202;SDS011;51788;45.124;38.966;2023-04-08T13:32:48;18.08;;;11.27;;
65202;SDS011;51788;45.124;38.966;2023-04-08T13:35:14;17.63;;;11.45;;
65202;SDS011;51788;45.124;38.966;2023-04-08T13:37:40;15.15;;;12.15;;
65202;SDS011;51788;45.124;38.966;2023-04-08T13:40:06;13.18;;;10.60;;
65202;SDS011;51788;45.124;38.966;2023-04-08T13:42:33;19.08;;;11.18;;
65202;SDS011;51788;45.124;38.966;2023-04-08T13:44:59;17.10;;;11.88;;
65202;SDS011;51788;45.124;38.966;2023-04-08T13:47:25;16.40;;;12.13;;
65202;SDS011;51788;45.124;38.966;2023-04-08T13:49:52;19.83;;;12.25;;
65202;SDS011;51788;45.124;38.966;2023-04-08T13:52:18;20.40;;;12.73;;
65202;SDS011;51788;45.124;38.966;2023-04-08T13:54:44;20.75;;;13.63;;
65202;SDS011;51788;45.124;38.966;2023-04-08T13:57:11;18.77;;;13.63;;
65202;SDS011;51788;45.124;38.966;2023-04-08T13:59:37;15.13;;;12.80;;
65202;SDS011;51788;45.124;38.966;2023-04-08T14:02:03;18.20;;;13.55;;
65202;SDS011;51788;45.124;38.966;2023-04-08T14:04:29;19.65;;;13.55;;
65202;SDS011;51788;45.124;38.966;2023-04-08T14:06:55;31.17;;;22.05;;
65202;SDS011;51788;45.124;38.966;2023-04-08T14:09:22;16.13;;;13.75;;
65202;SDS011;51788;45.124;38.966;2023-04-08T14:11:48;20.48;;;13.27;;
65202;SDS011;51788;45.124;38.966;2023-04-08T14:14:14;18.80;;;13.45;;
65202;SDS011;51788;45.124;38.966;2023-04-08T14:16:41;18.35;;;12.90;;
65202;SDS011;51788;45.124;38.966;2023-04-08T14:19:07;20.67;;;13.25;;
65202;SDS011;51788;45.124;38.966;2023-04-08T14:21:33;25.42;;;17.02;;
65202;SDS011;51788;45.124;38.966;2023-04-08T14:23:59;22.10;;;12.65;;
65202;SDS011;51788;45.124;38.966;2023-04-08T14:26:25;18.95;;;14.02;;
65202;SDS011;51788;45.124;38.966;2023-04-08T14:28:51;17.42;;;12.50;;
65202;SDS011;51788;45.124;38.966;2023-04-08T14:31:17;24.80;;;14.18;;
65202;SDS011;51788;45.124;38.966;2023-04-08T14:33:43;29.52;;;14.90;;
65202;SDS011;51788;45.124;38.966;2023-04-08T14:36:09;24.48;;;16.65;;
65202;SDS011;51788;45.124;38.966;2023-04-08T14:38:35;51.08;;;34.28;;
65202;SDS011;51788;45.124;38.966;2023-04-08T14:41:04;15.57;;;12.63;;